Time;durP1;ratioP1;P1;durP2;ratioP2;P2;SDS_P1;SDS_P2;PMS_P1;PMS_P2;Temp;Humidity;BMP_temperature;BMP_pressure;BME280_temperature;BME280_humidity;BME280_pressure;Samples;Min_cycle;Max_cycle;Signal;HPM_P1;HPM_P2
2023/07/15 00:00:41;;;;;;;7.05;4.95;;;19.50;99.90;;;;;;6071397;23;20372;-71
2023/07/15 00:03:12;;;;;;;8.93;5.15;;;19.50;99.90;;;;;;6098627;23;20023;-71
2023/07/15 00:05:39;;;;;;;6.43;4.90;;;19.50;99.90;;;;;;6096003;23;20562;-71
2023/07/15 00:08:06;;;;;;;6.03;4.93;;;19.50;99.90;;;;;;6071895;23;20771;-70
2023/07/15 00:10:33;;;;;;;6.05;4.75;;;19.50;99.90;;;;;;6096517;23;20022;-70
2023/07/15 00:13:00;;;;;;;5.82;5.10;;;19.40;99.90;;;;;;6097245;23;20018;-71
2023/07/15 00:15:26;;;;;;;6.40;4.90;;;19.40;99.90;;;;;;6096841;23;20030;-71
2023/07/15 00:17:52;;;;;;;7.25;4.95;;;19.40;99.90;;;;;;6096988;23;20460;-71
2023/07/15 00:20:19;;;;;;;6.28;4.70;;;19.40;99.90;;;;;;6096820;23;20022;-71
2023/07/15 00:22:46;;;;;;;5.50;4.50;;;19.40;99.90;;;;;;6095283;23;20077;-71
2023/07/15 00:25:17;;;;;;;7.50;4.55;;;19.40;99.90;;;;;;6071578;23;20018;-71
2023/07/15 00:27:44;;;;;;;5.15;4.65;;;19.30;99.90;;;;;;6096017;23;20380;-70
2023/07/15 00:30:16;;;;;;;8.18;5.10;;;19.30;99.90;;;;;;6094921;23;20030;-71
2023/07/15 00:32:45;;;;;;;;;;;19.30;99.90;;;;;;6096850;23;20027;-70
2023/07/15 00:35:29;;;;;;;7.13;4.90;;;19.30;99.90;;;;;;6096585;23;19917;-71
2023/07/15 00:37:58;;;;;;;7.38;4.85;;;19.30;99.90;;;;;;6095713;23;20496;-71
2023/07/15 00:40:24;;;;;;;7.32;4.57;;;19.20;99.90;;;;;;6095879;23;20018;-71
2023/07/15 00:42:52;;;;;;;5.72;4.63;;;19.20;99.90;;;;;;6070300;23;20037;-71
2023/07/15 00:45:18;;;;;;;5.40;4.68;;;19.20;99.90;;;;;;6097912;23;20018;-71
2023/07/15 00:47:53;;;;;;;6.75;4.97;;;19.20;99.90;;;;;;6070659;23;20286;-71
2023/07/15 00:50:19;;;;;;;5.70;4.53;;;19.20;99.90;;;;;;6095998;23;20018;-71
2023/07/15 00:52:44;;;;;;;5.55;4.70;;;19.20;99.90;;;;;;6047071;23;20107;-71
2023/07/15 00:55:11;;;;;;;6.57;5.28;;;19.20;99.90;;;;;;6095350;23;20033;-71
2023/07/15 00:57:36;;;;;;;7.38;5.05;;;19.10;99.90;;;;;;6095599;23;20022;-71
2023/07/15 01:00:04;;;;;;;5.70;5.10;;;19.20;99.90;;;;;;6094195;23;20022;-70
2023/07/15 01:02:30;;;;;;;5.80;4.93;;;19.10;99.90;;;;;;6096401;23;20060;-71
2023/07/15 01:04:56;;;;;;;6.68;4.85;;;19.10;99.90;;;;;;6094698;23;20075;-71
2023/07/15 01:07:22;;;;;;;6.68;4.93;;;19.10;99.90;;;;;;6096269;23;20025;-71
2023/07/15 01:09:47;;;;;;;6.07;4.85;;;19.10;99.90;;;;;;6071056;23;20058;-71
2023/07/15 01:12:13;;;;;;;5.05;4.35;;;19.20;99.90;;;;;;6071364;23;20029;-71
2023/07/15 01:14:40;;;;;;;6.63;4.75;;;19.20;99.90;;;;;;6047968;23;20050;-71
2023/07/15 01:17:06;;;;;;;7.22;4.63;;;19.20;99.90;;;;;;6094573;23;20033;-71
2023/07/15 01:19:32;;;;;;;5.82;4.75;;;19.20;99.90;;;;;;6096076;23;20019;-71
2023/07/15 01:21:58;;;;;;;7.60;4.55;;;19.20;99.90;;;;;;6094091;23;20033;-71
2023/07/15 01:24:25;;;;;;;5.55;4.53;;;19.20;99.90;;;;;;6048410;23;20081;-70
2023/07/15 01:26:57;;;;;;;6.65;3.95;;;19.30;99.90;;;;;;6094973;23;20022;-70
2023/07/15 01:29:23;;;;;;;6.68;4.18;;;19.30;99.90;;;;;;6095371;23;20015;-71
2023/07/15 01:31:49;;;;;;;7.63;4.13;;;19.40;99.90;;;;;;6071663;23;20022;-71
2023/07/15 01:34:14;;;;;;;4.93;3.70;;;19.40;99.90;;;;;;6094631;23;20079;-71
2023/07/15 01:36:40;;;;;;;6.22;4.22;;;19.50;99.90;;;;;;6072403;23;20057;-70
2023/07/15 01:39:09;;;;;;;4.88;3.58;;;19.50;99.90;;;;;;6070582;23;20033;-71
2023/07/15 01:41:35;;;;;;;4.35;3.88;;;19.50;99.90;;;;;;6072123;23;20462;-70
2023/07/15 01:44:04;;;;;;;4.72;3.72;;;19.60;99.90;;;;;;6070611;23;20022;-70
2023/07/15 01:46:30;;;;;;;5.13;3.67;;;19.60;99.90;;;;;;6095323;23;20015;-70
2023/07/15 01:49:02;;;;;;;4.68;4.10;;;19.60;99.90;;;;;;6071827;23;20073;-70
2023/07/15 01:51:28;;;;;;;4.15;3.75;;;19.70;99.90;;;;;;6094241;23;20029;-71
2023/07/15 01:53:54;;;;;;;8.75;3.53;;;19.80;99.90;;;;;;6072305;23;20022;-71
2023/07/15 01:56:21;;;;;;;6.28;3.95;;;19.90;99.90;;;;;;6046846;23;20023;-70
2023/07/15 01:58:48;;;;;;;5.22;3.45;;;20.00;99.90;;;;;;6097986;23;20026;-70
2023/07/15 02:01:13;;;;;;;5.50;3.50;;;20.00;99.90;;;;;;6073418;23;20022;-71
2023/07/15 02:03:40;;;;;;;6.82;3.97;;;20.00;99.90;;;;;;6048619;23;20030;-71
2023/07/15 02:06:06;;;;;;;5.78;3.38;;;20.10;99.90;;;;;;6098081;23;20014;-71
2023/07/15 02:08:32;;;;;;;3.92;3.42;;;20.10;99.90;;;;;;6072783;23;20018;-71
2023/07/15 02:10:58;;;;;;;4.75;3.42;;;20.20;99.90;;;;;;6074648;23;20079;-71
2023/07/15 02:13:25;;;;;;;5.72;3.13;;;20.30;99.90;;;;;;6096494;23;20030;-70
2023/07/15 02:15:51;;;;;;;5.93;3.80;;;20.30;99.90;;;;;;6099966;23;20033;-71
2023/07/15 02:18:17;;;;;;;3.95;3.20;;;20.30;99.90;;;;;;6073078;23;20022;-71
2023/07/15 02:20:44;;;;;;;4.32;3.40;;;20.30;99.90;;;;;;6049526;23;20338;-71
2023/07/15 02:23:11;;;;;;;5.22;3.40;;;20.30;99.90;;;;;;6073613;23;20030;-71
2023/07/15 02:25:37;;;;;;;4.80;3.55;;;20.30;99.90;;;;;;6096432;23;20028;-71
2023/07/15 02:28:02;;;;;;;5.38;3.90;;;20.30;99.90;;;;;;6050086;23;20022;-70
2023/07/15 02:30:28;;;;;;;5.40;3.92;;;20.20;99.90;;;;;;6095987;23;20023;-71
2023/07/15 02:32:54;;;;;;;5.80;3.60;;;20.20;99.90;;;;;;6073957;23;20153;-71
2023/07/15 02:35:21;;;;;;;6.40;3.42;;;20.10;99.90;;;;;;6096431;23;20347;-71
2023/07/15 02:37:50;;;;;;;5.57;3.60;;;20.00;99.90;;;;;;6097325;23;20341;-71
2023/07/15 02:40:16;;;;;;;5.72;3.80;;;20.00;99.90;;;;;;6097233;23;20061;-71
2023/07/15 02:42:43;;;;;;;4.28;3.67;;;20.00;99.90;;;;;;6072023;23;20058;-71
2023/07/15 02:45:11;;;;;;;4.90;3.90;;;19.90;99.90;;;;;;6099760;23;20080;-70
2023/07/15 02:47:39;;;;;;;7.60;4.10;;;19.80;99.90;;;;;;6095865;23;20102;-71
2023/07/15 02:50:07;;;;;;;5.38;3.65;;;19.80;99.90;;;;;;6050293;23;20097;-71
2023/07/15 02:52:34;;;;;;;4.75;3.70;;;19.80;99.90;;;;;;6096231;23;20022;-71
2023/07/15 02:55:01;;;;;;;4.65;3.80;;;19.80;99.90;;;;;;6098681;23;20291;-71
2023/07/15 02:57:30;;;;;;;6.65;3.42;;;19.80;99.90;;;;;;6073443;23;20026;-70
2023/07/15 02:59:56;;;;;;;6.47;3.60;;;19.80;99.90;;;;;;6048313;23;20032;-71
2023/07/15 03:02:23;;;;;;;4.72;3.58;;;19.70;99.90;;;;;;6097437;23;20459;-72
2023/07/15 03:04:49;;;;;;;4.75;3.78;;;19.70;99.90;;;;;;6097858;23;20397;-71
2023/07/15 03:07:16;;;;;;;7.03;3.72;;;19.70;99.90;;;;;;6097742;23;20022;-71
2023/07/15 03:09:42;;;;;;;3.90;3.50;;;19.60;99.90;;;;;;6072828;23;20102;-71
2023/07/15 03:12:11;;;;;;;5.32;3.47;;;19.60;99.90;;;;;;6098696;23;20029;-70
2023/07/15 03:14:37;;;;;;;5.82;3.40;;;19.60;99.90;;;;;;6074240;23;20586;-71
2023/07/15 03:17:04;;;;;;;4.97;3.72;;;19.60;99.90;;;;;;6049243;23;20229;-71
2023/07/15 03:19:32;;;;;;;6.40;3.80;;;19.50;99.90;;;;;;6049891;23;20022;-71
2023/07/15 03:21:58;;;;;;;4.00;3.60;;;19.50;99.90;;;;;;6048373;23;20026;-71
2023/07/15 03:24:25;;;;;;;6.32;3.67;;;19.50;99.90;;;;;;6097779;23;20026;-71
2023/07/15 03:26:52;;;;;;;4.38;3.90;;;19.50;99.90;;;;;;6096240;23;20306;-71
2023/07/15 03:29:18;;;;;;;3.83;3.38;;;19.50;99.90;;;;;;6073040;23;20325;-71
2023/07/15 03:31:44;;;;;;;4.40;3.95;;;19.40;99.90;;;;;;6097946;23;20053;-71
2023/07/15 03:34:10;;;;;;;5.32;3.90;;;19.40;99.90;;;;;;6071577;23;20026;-71
2023/07/15 03:36:35;;;;;;;5.40;4.00;;;19.30;99.90;;;;;;6098582;23;20029;-71
2023/07/15 03:39:01;;;;;;;5.20;3.85;;;19.30;99.90;;;;;;6094267;23;20075;-70
2023/07/15 03:41:27;;;;;;;4.85;4.03;;;19.30;99.90;;;;;;6095838;23;20025;-70
2023/07/15 03:43:53;;;;;;;5.38;3.65;;;19.20;99.90;;;;;;6095803;23;20031;-71
2023/07/15 03:46:19;;;;;;;4.93;3.55;;;19.20;99.90;;;;;;6072476;23;20029;-71
2023/07/15 03:48:44;;;;;;;4.28;3.83;;;19.20;99.90;;;;;;6096039;23;20046;-71
2023/07/15 03:51:10;;;;;;;4.68;3.50;;;19.20;99.90;;;;;;6097266;23;20411;-71
2023/07/15 03:53:36;;;;;;;4.90;3.88;;;19.20;99.90;;;;;;6072744;23;20049;-71
2023/07/15 03:56:01;;;;;;;4.80;3.65;;;19.10;99.90;;;;;;6047579;23;20057;-71
2023/07/15 03:58:27;;;;;;;4.43;3.75;;;19.10;99.90;;;;;;6072819;23;20030;-71
2023/07/15 04:00:53;;;;;;;6.35;4.18;;;19.00;99.90;;;;;;6071228;23;20022;-71
2023/07/15 04:03:18;;;;;;;6.78;3.80;;;19.00;99.90;;;;;;6072504;23;20353;-71
2023/07/15 04:05:44;;;;;;;6.25;4.07;;;19.00;99.90;;;;;;6095937;23;20106;-71
2023/07/15 04:08:11;;;;;;;4.50;3.53;;;18.90;99.90;;;;;;6072221;23;20026;-71
2023/07/15 04:10:37;;;;;;;6.07;3.60;;;19.00;99.90;;;;;;6072903;23;20026;-71
2023/07/15 04:13:03;;;;;;;6.03;4.18;;;18.90;99.90;;;;;;6047410;23;20034;-71
2023/07/15 04:15:30;;;;;;;6.35;3.65;;;18.90;99.90;;;;;;6049041;23;20026;-71
2023/07/15 04:17:56;;;;;;;9.15;3.97;;;19.00;99.90;;;;;;6095167;23;20022;-71
2023/07/15 04:20:22;;;;;;;4.50;3.83;;;19.00;99.90;;;;;;6096163;23;20029;-72
2023/07/15 04:22:48;;;;;;;3.55;3.25;;;19.00;99.90;;;;;;6094697;23;20034;-71
2023/07/15 04:25:14;;;;;;;7.47;3.67;;;19.00;99.90;;;;;;6095756;23;20093;-71
2023/07/15 04:27:43;;;;;;;4.97;3.78;;;19.00;99.90;;;;;;6048248;23;20022;-70
2023/07/15 04:30:10;;;;;;;4.03;3.63;;;19.00;99.90;;;;;;6094803;23;20396;-71
2023/07/15 04:32:36;;;;;;;4.53;3.55;;;19.00;99.90;;;;;;6072412;23;20057;-70
2023/07/15 04:35:02;;;;;;;4.97;3.60;;;19.00;99.90;;;;;;6070936;23;20023;-70
2023/07/15 04:37:29;;;;;;;5.13;3.65;;;19.00;99.90;;;;;;6098168;23;20081;-75
2023/07/15 04:39:55;;;;;;;5.53;3.33;;;19.10;99.90;;;;;;6071723;23;20524;-70
2023/07/15 04:42:20;;;;;;;7.90;3.63;;;19.10;99.90;;;;;;6071389;23;20022;-69
2023/07/15 04:44:46;;;;;;;3.92;3.58;;;19.20;99.90;;;;;;6095963;23;20078;-71
2023/07/15 04:47:12;;;;;;;6.28;3.60;;;19.20;99.90;;;;;;6047029;23;20049;-71
2023/07/15 04:49:38;;;;;;;5.03;3.80;;;19.20;99.90;;;;;;6072510;23;20045;-71
2023/07/15 04:52:04;;;;;;;4.63;3.20;;;19.20;99.90;;;;;;6046673;23;20037;-70
2023/07/15 04:54:30;;;;;;;5.05;3.40;;;19.30;99.90;;;;;;6095687;23;20109;-70
2023/07/15 04:56:56;;;;;;;3.55;3.13;;;19.40;99.90;;;;;;6095394;23;20022;-70
2023/07/15 04:59:22;;;;;;;5.60;3.80;;;19.40;99.90;;;;;;6071449;23;20022;-70
2023/07/15 05:01:48;;;;;;;5.30;3.58;;;19.50;99.90;;;;;;6097521;23;20085;-71
2023/07/15 05:04:14;;;;;;;4.25;3.50;;;19.50;99.90;;;;;;6045520;23;20408;-71
2023/07/15 05:06:40;;;;;;;4.38;3.42;;;19.50;99.90;;;;;;6072661;23;20022;-70
2023/07/15 05:09:06;;;;;;;5.63;3.60;;;19.50;99.90;;;;;;6046774;23;20029;-70
2023/07/15 05:11:31;;;;;;;7.45;3.67;;;19.60;99.90;;;;;;6098571;23;20077;-70
2023/07/15 05:13:57;;;;;;;5.03;3.50;;;19.60;99.90;;;;;;6094997;23;20274;-70
2023/07/15 05:16:23;;;;;;;7.95;3.92;;;19.60;99.90;;;;;;6095653;23;20023;-69
2023/07/15 05:18:48;;;;;;;4.10;3.58;;;19.70;99.90;;;;;;6095081;23;20038;-70
2023/07/15 05:21:14;;;;;;;4.63;3.80;;;19.70;99.90;;;;;;6045852;23;20061;-71
2023/07/15 05:23:40;;;;;;;4.18;3.35;;;19.70;99.90;;;;;;6096283;23;20041;-70
2023/07/15 05:26:06;;;;;;;5.65;3.55;;;19.80;99.90;;;;;;6070713;23;20018;-71
2023/07/15 05:28:32;;;;;;;8.25;3.72;;;19.80;99.90;;;;;;6097238;23;20121;-71
2023/07/15 05:31:02;;;;;;;4.40;3.80;;;19.80;99.90;;;;;;6070604;23;20026;-70
2023/07/15 05:33:28;;;;;;;5.05;3.90;;;19.90;99.90;;;;;;6097295;23;20022;-70
2023/07/15 05:35:55;;;;;;;6.32;3.80;;;19.90;99.90;;;;;;6095906;23;20117;-70
2023/07/15 05:38:25;;;;;;;5.30;3.50;;;20.00;99.90;;;;;;6094785;23;20022;-70
2023/07/15 05:40:52;;;;;;;5.30;3.67;;;20.10;99.90;;;;;;6071919;23;20033;-70
2023/07/15 05:43:21;;;;;;;5.88;3.83;;;20.20;99.90;;;;;;6069158;23;20022;-69
2023/07/15 05:45:47;;;;;;;4.32;3.25;;;20.30;99.90;;;;;;6096371;23;20095;-70
2023/07/15 05:48:13;;;;;;;6.18;3.17;;;20.40;99.90;;;;;;6094922;23;20019;-70
2023/07/15 05:50:39;;;;;;;4.63;3.53;;;20.50;99.90;;;;;;6071739;23;20109;-70
2023/07/15 05:53:06;;;;;;;4.80;3.45;;;20.60;99.90;;;;;;6095917;23;20018;-69
2023/07/15 05:55:35;;;;;;;7.97;3.83;;;20.70;99.90;;;;;;6094803;23;20023;-70
2023/07/15 05:58:01;;;;;;;5.45;3.22;;;20.80;99.90;;;;;;6096164;23;20070;-70
2023/07/15 06:00:28;;;;;;;5.82;3.92;;;20.90;99.90;;;;;;6094781;23;20022;-69
2023/07/15 06:02:54;;;;;;;3.53;2.90;;;21.00;99.90;;;;;;6072442;23;20048;-70
2023/07/15 06:05:20;;;;;;;5.22;3.20;;;21.00;99.90;;;;;;6070906;23;20046;-69
2023/07/15 06:07:48;;;;;;;4.45;3.92;;;21.20;99.90;;;;;;6071529;23;20053;-70
2023/07/15 06:10:14;;;;;;;5.70;3.38;;;21.20;99.90;;;;;;6095939;23;20023;-70
2023/07/15 06:12:41;;;;;;;4.30;3.35;;;21.30;99.90;;;;;;6094449;23;20015;-70
2023/07/15 06:15:07;;;;;;;5.55;3.63;;;21.40;99.90;;;;;;6097887;23;20021;-70
2023/07/15 06:17:33;;;;;;;4.85;3.28;;;21.60;99.90;;;;;;6094544;23;20025;-70
2023/07/15 06:19:59;;;;;;;4.03;3.30;;;21.70;99.90;;;;;;6096146;23;20034;-70
2023/07/15 06:22:25;;;;;;;5.75;3.78;;;21.80;99.90;;;;;;6046877;23;20026;-70
2023/07/15 06:24:50;;;;;;;5.18;3.45;;;21.90;99.90;;;;;;6071549;23;20033;-70
2023/07/15 06:27:16;;;;;;;6.30;3.40;;;21.90;99.90;;;;;;6095713;23;20018;-70
2023/07/15 06:29:42;;;;;;;6.07;3.50;;;22.00;99.90;;;;;;6046491;23;20058;-70
2023/07/15 06:32:08;;;;;;;4.10;3.50;;;22.00;99.90;;;;;;6071644;23;20023;-70
2023/07/15 06:34:34;;;;;;;3.80;3.20;;;22.20;99.90;;;;;;6070797;23;20137;-70
2023/07/15 06:36:59;;;;;;;11.25;4.22;;;22.20;99.90;;;;;;6096519;23;20068;-70
2023/07/15 06:39:25;;;;;;;4.60;3.40;;;22.30;99.90;;;;;;6095124;23;20025;-70
2023/07/15 06:41:51;;;;;;;7.00;3.63;;;22.40;99.90;;;;;;6098121;23;20029;-69
2023/07/15 06:44:17;;;;;;;5.15;3.60;;;22.50;99.90;;;;;;6073416;23;20465;-70
2023/07/15 06:46:43;;;;;;;5.38;3.40;;;22.50;99.90;;;;;;6049351;23;20162;-70
2023/07/15 06:49:08;;;;;;;4.97;3.63;;;22.50;99.90;;;;;;6073663;23;20026;-70
2023/07/15 06:51:34;;;;;;;4.05;3.30;;;22.60;99.90;;;;;;6095629;23;20050;-70
2023/07/15 06:54:01;;;;;;;6.60;3.42;;;22.60;99.90;;;;;;6097465;23;20022;-70
2023/07/15 06:56:27;;;;;;;5.63;3.42;;;22.70;99.90;;;;;;6096355;23;20038;-69
2023/07/15 06:58:53;;;;;;;5.93;3.22;;;22.80;99.90;;;;;;6097412;23;20022;-70
2023/07/15 07:01:19;;;;;;;4.60;3.25;;;22.90;99.90;;;;;;6096657;23;20026;-70
2023/07/15 07:03:45;;;;;;;4.57;3.25;;;22.90;99.90;;;;;;6098402;23;20077;-70
2023/07/15 07:06:10;;;;;;;4.43;3.47;;;23.00;99.90;;;;;;6072589;23;20053;-70
2023/07/15 07:08:36;;;;;;;5.70;3.38;;;23.00;99.90;;;;;;6095741;23;20018;-69
2023/07/15 07:11:02;;;;;;;5.88;3.75;;;23.10;99.90;;;;;;6073145;23;20048;-70
2023/07/15 07:13:28;;;;;;;6.00;2.97;;;23.20;99.90;;;;;;6097174;23;20563;-70
2023/07/15 07:15:58;;;;;;;3.88;3.20;;;23.30;99.90;;;;;;6097410;23;20053;-69
2023/07/15 07:18:25;;;;;;;4.75;3.13;;;23.30;99.90;;;;;;6072707;23;20089;-70
2023/07/15 07:20:58;;;;;;;5.78;3.10;;;23.50;99.90;;;;;;6072777;23;20077;-70
2023/07/15 07:23:24;;;;;;;4.55;3.03;;;23.50;99.90;;;;;;6074868;23;20046;-70
2023/07/15 07:25:50;;;;;;;6.20;3.40;;;23.60;99.90;;;;;;6097204;23;20110;-70
2023/07/15 07:28:16;;;;;;;7.00;3.10;;;23.70;99.90;;;;;;6075381;23;20029;-70
2023/07/15 07:30:42;;;;;;;5.45;3.00;;;23.70;99.90;;;;;;6073349;23;20018;-70
2023/07/15 07:33:07;;;;;;;5.28;3.28;;;23.70;99.90;;;;;;6098944;23;20477;-70
2023/07/15 07:35:33;;;;;;;6.38;3.13;;;23.80;99.90;;;;;;6073642;23;20026;-70
2023/07/15 07:37:59;;;;;;;3.28;2.97;;;23.80;99.90;;;;;;6096210;23;20127;-70
2023/07/15 07:40:26;;;;;;;4.47;3.13;;;23.70;99.90;;;;;;6097063;23;20457;-69
2023/07/15 07:42:51;;;;;;;4.40;3.08;;;23.60;99.90;;;;;;6096723;23;20111;-70
2023/07/15 07:45:17;;;;;;;6.00;3.47;;;23.60;99.90;;;;;;6097141;23;20022;-70
2023/07/15 07:47:43;;;;;;;5.68;3.28;;;23.60;99.90;;;;;;6047800;23;20023;-70
2023/07/15 07:50:10;;;;;;;5.15;3.22;;;23.70;99.90;;;;;;6072940;23;20022;-70
2023/07/15 07:52:35;;;;;;;4.03;3.03;;;23.80;99.90;;;;;;6098077;23;20014;-70
2023/07/15 07:55:03;;;;;;;4.90;2.70;;;23.80;99.90;;;;;;6097521;23;20018;-70
2023/07/15 07:57:29;;;;;;;3.60;3.00;;;24.00;99.90;;;;;;6096748;23;20466;-69
2023/07/15 07:59:54;;;;;;;3.45;2.72;;;24.10;99.90;;;;;;6071268;23;20022;-70
2023/07/15 08:02:20;;;;;;;3.35;2.28;;;24.20;99.90;;;;;;6072909;23;20026;-70
2023/07/15 08:04:48;;;;;;;3.20;2.45;;;24.20;99.90;;;;;;6095693;23;20105;-70
2023/07/15 08:07:14;;;;;;;3.50;2.00;;;24.10;99.90;;;;;;6097356;23;20026;-70
2023/07/15 08:09:40;;;;;;;3.95;1.88;;;24.10;99.90;;;;;;6048630;23;20583;-70
2023/07/15 08:12:08;;;;;;;4.05;2.42;;;24.00;99.90;;;;;;6096564;23;20085;-70
2023/07/15 08:14:34;;;;;;;2.33;1.90;;;24.00;99.90;;;;;;6096578;23;20467;-69
2023/07/15 08:17:00;;;;;;;3.92;2.70;;;24.10;99.90;;;;;;6097287;23;20090;-70
2023/07/15 08:19:26;;;;;;;3.85;2.75;;;24.20;99.90;;;;;;6073010;23;20018;-70
2023/07/15 08:21:51;;;;;;;2.95;2.20;;;24.30;99.90;;;;;;6096752;23;20022;-70
2023/07/15 08:24:17;;;;;;;5.97;2.38;;;24.50;99.90;;;;;;6098844;23;20029;-70
2023/07/15 08:26:43;;;;;;;3.92;2.67;;;24.60;99.90;;;;;;6071539;23;20026;-70
2023/07/15 08:29:10;;;;;;;3.90;2.08;;;24.80;99.90;;;;;;6095705;23;20058;-70
2023/07/15 08:31:35;;;;;;;3.85;2.28;;;25.00;99.90;;;;;;6096348;23;20023;-70
2023/07/15 08:34:03;;;;;;;2.40;2.20;;;25.00;99.90;;;;;;6049024;23;20342;-70
2023/07/15 08:36:28;;;;;;;3.15;2.22;;;25.00;99.90;;;;;;6099213;23;20029;-70
2023/07/15 08:38:54;;;;;;;2.88;2.30;;;25.00;99.90;;;;;;6095000;23;20026;-70
2023/07/15 08:41:24;;;;;;;3.72;2.63;;;25.10;99.90;;;;;;6096997;23;20018;-70
2023/07/15 08:43:50;;;;;;;6.90;2.58;;;25.20;99.90;;;;;;6095327;23;20034;-70
2023/07/15 08:46:27;;;;;;;2.78;2.20;;;25.40;99.90;;;;;;6096086;23;20470;-70
2023/07/15 08:48:57;;;;;;;3.58;2.60;;;25.50;99.90;;;;;;6096218;23;20361;-70
2023/07/15 08:51:26;;;;;;;4.10;2.40;;;25.60;99.90;;;;;;6071023;23;20073;-70
2023/07/15 08:53:53;;;;;;;2.53;2.05;;;25.70;99.90;;;;;;6096858;23;20088;-70
2023/07/15 08:56:20;;;;;;;3.92;2.60;;;25.70;99.90;;;;;;6095099;23;20141;-70
2023/07/15 08:58:48;;;;;;;3.50;2.35;;;25.70;99.90;;;;;;6096257;23;20490;-70
2023/07/15 09:01:14;;;;;;;3.28;2.50;;;25.50;99.90;;;;;;6048031;23;20029;-70
2023/07/15 09:03:40;;;;;;;3.83;2.20;;;25.40;99.90;;;;;;6071674;23;20074;-70
2023/07/15 09:06:06;;;;;;;7.00;2.60;;;25.30;99.90;;;;;;6097997;23;20025;-70
2023/07/15 09:08:31;;;;;;;2.65;2.30;;;25.20;99.90;;;;;;6071062;23;20093;-70
2023/07/15 09:10:58;;;;;;;2.90;2.60;;;25.20;99.90;;;;;;6096872;23;20022;-70
2023/07/15 09:13:32;;;;;;;4.13;2.47;;;25.10;99.90;;;;;;6070811;23;20050;-70
2023/07/15 09:15:59;;;;;;;2.90;2.50;;;25.20;99.90;;;;;;6098131;23;20053;-70
2023/07/15 09:18:25;;;;;;;3.33;2.33;;;25.20;99.90;;;;;;6097299;23;20018;-70
2023/07/15 09:21:16;;;;;;;3.97;2.35;;;25.10;99.90;;;;;;6071163;23;20559;-71
2023/07/15 09:23:45;;;;;;;4.78;2.53;;;25.00;99.90;;;;;;6096055;23;20022;-70
2023/07/15 09:26:12;;;;;;;3.97;2.40;;;24.90;99.90;;;;;;6096370;23;20018;-70
2023/07/15 09:28:39;;;;;;;3.35;2.47;;;24.80;99.90;;;;;;6096233;23;20023;-70
2023/07/15 09:31:05;;;;;;;4.15;2.42;;;24.90;99.90;;;;;;6095284;23;20047;-70
2023/07/15 09:33:38;;;;;;;2.72;2.47;;;24.90;99.90;;;;;;6071786;23;20018;-70
2023/07/15 09:36:05;;;;;;;4.68;2.90;;;24.90;99.90;;;;;;6095595;23;20062;-70
2023/07/15 09:38:33;;;;;;;4.25;2.38;;;24.90;99.90;;;;;;6096430;23;20042;-70
2023/07/15 09:41:00;;;;;;;4.38;2.55;;;25.00;99.90;;;;;;6072094;23;20070;-69
2023/07/15 09:43:48;;;;;;;2.85;2.20;;;25.00;99.90;;;;;;6070543;23;20018;-70
2023/07/15 09:46:17;;;;;;;5.38;2.40;;;25.00;99.90;;;;;;6095819;23;20026;-70
2023/07/15 09:48:48;;;;;;;2.50;2.30;;;25.10;99.90;;;;;;6097505;23;20550;-70
2023/07/15 09:51:15;;;;;;;3.10;2.45;;;25.00;99.90;;;;;;6096659;23;20026;-69
2023/07/15 09:54:02;;;;;;;2.83;2.30;;;25.00;99.90;;;;;;6072436;23;20022;-70
2023/07/15 09:56:35;;;;;;;4.25;2.25;;;25.00;99.90;;;;;;6097123;23;20045;-70
2023/07/15 09:59:25;;;;;;;3.42;2.15;;;25.20;99.90;;;;;;6096060;23;20015;-70
2023/07/15 10:01:56;;;;;;;4.03;2.50;;;25.50;99.90;;;;;;6096127;23;20333;-70
2023/07/15 10:04:29;;;;;;;3.35;2.15;;;25.60;99.90;;;;;;6096888;23;20026;-70
2023/07/15 10:06:54;;;;;;;2.50;2.22;;;25.60;99.90;;;;;;6098765;23;20051;-71
2023/07/15 10:09:22;;;;;;;4.38;2.30;;;25.50;99.90;;;;;;6096884;23;20025;-70
2023/07/15 10:11:49;;;;;;;3.65;1.83;;;25.60;99.90;;;;;;6096009;23;20033;-69
2023/07/15 10:14:15;;;;;;;3.70;2.20;;;25.70;99.90;;;;;;6071598;23;20019;-71
2023/07/15 10:16:40;;;;;;;2.60;2.00;;;25.70;99.90;;;;;;6070984;23;20074;-71
2023/07/15 10:19:45;;;;;;;2.83;1.80;;;25.70;99.90;;;;;;6097986;23;20049;-70
2023/07/15 10:22:11;;;;;;;3.42;1.90;;;25.80;99.90;;;;;;6096258;23;20022;-69
2023/07/15 10:24:42;;;;;;;6.65;1.90;;;25.90;99.90;;;;;;6073247;23;20038;-70
2023/07/15 10:27:10;;;;;;;4.67;1.93;;;25.70;99.90;;;;;;6050128;23;20081;-70
2023/07/15 10:29:40;;;;;;;3.70;2.10;;;25.60;99.90;;;;;;6096454;23;20294;-70
2023/07/15 10:32:11;;;;;;;3.53;1.75;;;25.50;99.90;;;;;;6100032;23;20062;-70
2023/07/15 10:34:49;;;;;;;4.07;1.83;;;25.50;99.90;;;;;;6097963;23;20023;-70
2023/07/15 10:37:19;;;;;;;2.78;1.80;;;25.40;99.90;;;;;;6074067;23;20052;-70
2023/07/15 10:39:46;;;;;;;2.80;1.52;;;25.30;99.90;;;;;;6049883;23;20070;-70
2023/07/15 10:42:14;;;;;;;2.65;1.38;;;25.30;99.90;;;;;;6072635;23;20098;-70
2023/07/15 10:44:53;;;;;;;6.55;2.25;;;25.40;99.90;;;;;;6099087;23;20026;-71
2023/07/15 10:47:20;;;;;;;4.97;1.83;;;25.40;99.90;;;;;;6095759;23;20599;-70
2023/07/15 10:49:48;;;;;;;3.03;1.65;;;25.40;99.90;;;;;;6073524;23;20069;-70
2023/07/15 10:52:19;;;;;;;4.20;1.67;;;25.40;99.90;;;;;;6096282;23;20029;-70
2023/07/15 10:54:45;;;;;;;3.08;1.75;;;25.30;99.90;;;;;;6099128;23;20048;-70
2023/07/15 10:57:12;;;;;;;2.97;1.83;;;25.30;99.90;;;;;;6073455;23;20027;-70
2023/07/15 10:59:40;;;;;;;2.10;1.90;;;25.20;99.90;;;;;;6096175;23;20019;-70
2023/07/15 11:02:06;;;;;;;2.15;1.88;;;25.20;99.90;;;;;;6097493;23;20026;-70
2023/07/15 11:04:33;;;;;;;3.33;2.17;;;25.40;99.90;;;;;;6071784;23;20014;-70
2023/07/15 11:07:17;;;;;;;3.55;1.95;;;25.50;99.90;;;;;;6097712;23;20353;-70
2023/07/15 11:09:43;;;;;;;3.88;2.03;;;25.70;99.90;;;;;;6072350;23;20030;-70
2023/07/15 11:12:10;;;;;;;1.73;1.63;;;25.70;99.90;;;;;;6096135;23;20467;-71
2023/07/15 11:14:42;;;;;;;4.65;1.88;;;25.90;99.90;;;;;;6097210;23;20023;-70
2023/07/15 11:17:08;;;;;;;3.33;2.03;;;25.90;99.90;;;;;;6095999;23;20057;-70
2023/07/15 11:19:34;;;;;;;6.47;2.08;;;25.90;99.90;;;;;;6097539;23;20093;-70
2023/07/15 11:22:05;;;;;;;2.97;1.90;;;25.90;99.90;;;;;;6095889;23;20605;-70
2023/07/15 11:24:31;;;;;;;2.47;2.00;;;25.80;99.90;;;;;;6073349;23;20022;-70
2023/07/15 11:27:00;;;;;;;3.13;1.85;;;25.80;99.90;;;;;;6096546;23;20046;-69
2023/07/15 11:29:26;;;;;;;2.00;1.80;;;25.70;99.90;;;;;;6095961;23;20065;-70
2023/07/15 11:31:54;;;;;;;2.97;2.03;;;25.60;99.90;;;;;;6097158;23;20070;-70
2023/07/15 11:34:21;;;;;;;4.03;2.08;;;25.60;99.90;;;;;;6071513;23;20032;-70
2023/07/15 11:36:48;;;;;;;4.00;2.20;;;25.70;99.90;;;;;;6073737;23;20057;-70
2023/07/15 11:39:14;;;;;;;2.30;2.10;;;25.80;99.90;;;;;;6096144;23;20026;-70
2023/07/15 11:41:40;;;;;;;4.65;2.42;;;25.70;99.90;;;;;;6096508;23;20073;-70
2023/07/15 11:44:11;;;;;;;4.07;2.38;;;25.60;99.90;;;;;;6096171;23;20099;-70
2023/07/15 11:46:38;;;;;;;3.17;2.50;;;25.50;99.90;;;;;;6072170;23;20022;-70
2023/07/15 11:49:05;;;;;;;3.60;2.70;;;25.30;99.90;;;;;;6097470;23;20022;-70
2023/07/15 11:51:32;;;;;;;2.67;2.42;;;25.30;99.90;;;;;;6095117;23;20018;-70
2023/07/15 11:53:58;;;;;;;4.10;2.20;;;25.30;99.90;;;;;;6097351;23;20023;-70
2023/07/15 11:56:41;;;;;;;3.97;2.40;;;25.20;99.90;;;;;;6047797;23;20027;-70
2023/07/15 11:59:26;;;;;;;3.35;2.08;;;25.10;99.90;;;;;;6096516;23;20050;-70
2023/07/15 12:01:53;;;;;;;2.90;2.60;;;25.00;99.90;;;;;;6098810;23;20073;-70
2023/07/15 12:04:19;;;;;;;3.53;2.00;;;24.90;99.90;;;;;;6095435;23;20029;-70
2023/07/15 12:06:55;;;;;;;3.13;1.85;;;24.80;99.90;;;;;;6073162;23;20078;-70
2023/07/15 12:09:22;;;;;;;2.35;2.10;;;24.70;99.90;;;;;;6072137;23;20018;-69
2023/07/15 12:11:48;;;;;;;2.75;1.98;;;24.60;99.90;;;;;;6098526;23;20025;-68
2023/07/15 12:14:15;;;;;;;3.92;2.03;;;24.60;99.90;;;;;;6096443;23;20029;-70
2023/07/15 12:16:42;;;;;;;3.00;2.30;;;24.60;99.90;;;;;;6047847;23;20022;-70
2023/07/15 12:19:10;;;;;;;3.00;1.90;;;24.60;99.90;;;;;;6097273;23;20030;-69
2023/07/15 12:21:37;;;;;;;3.35;2.17;;;24.70;99.90;;;;;;6095054;23;20023;-70
2023/07/15 12:24:02;;;;;;;5.25;2.35;;;24.80;99.90;;;;;;6098749;23;20432;-69
2023/07/15 12:26:28;;;;;;;2.78;2.42;;;24.90;99.90;;;;;;6097682;23;20022;-69
2023/07/15 12:28:54;;;;;;;3.42;2.05;;;25.00;99.90;;;;;;6072895;23;20022;-70
2023/07/15 12:31:21;;;;;;;3.63;2.00;;;25.20;99.90;;;;;;6097940;23;20022;-70
2023/07/15 12:33:47;;;;;;;3.40;2.63;;;25.40;99.90;;;;;;6097318;23;20010;-70
2023/07/15 12:36:14;;;;;;;3.75;2.63;;;25.40;99.90;;;;;;6096494;23;20449;-70
2023/07/15 12:38:40;;;;;;;2.58;2.20;;;25.50;99.90;;;;;;6071322;23;20476;-69
2023/07/15 12:41:08;;;;;;;5.68;2.30;;;25.50;99.90;;;;;;6098229;23;20022;-70
2023/07/15 12:43:35;;;;;;;2.92;2.28;;;25.50;99.90;;;;;;6071212;23;20037;-71
2023/07/15 12:46:02;;;;;;;3.20;1.80;;;25.40;99.90;;;;;;6098004;23;20078;-71
2023/07/15 12:48:29;;;;;;;2.70;1.90;;;25.20;99.90;;;;;;6096111;23;20068;-69